sensor_id;sensor_type;location;lat;lon;timestamp;temperature;humidity
16728;DHT22;8482;54.396;18.590;2022-10-16T16:12:00;17.20;99.90
16728;DHT22;8482;54.396;18.590;2022-10-16T16:14:27;17.20;99.90
16728;DHT22;8482;54.396;18.590;2022-10-16T16:16:54;17.20;99.90
16728;DHT22;8482;54.396;18.590;2022-10-16T16:19:20;17.10;99.90
16728;DHT22;8482;54.396;18.590;2022-10-16T16:21:48;17.10;99.90
16728;DHT22;8482;54.396;18.590;2022-10-16T16:24:14;17.10;99.90
16728;DHT22;8482;54.396;18.590;2022-10-16T16:26:40;17.10;99.90
16728;DHT22;8482;54.396;18.590;2022-10-16T16:29:12;17.10;99.90
16728;DHT22;8482;54.396;18.590;2022-10-16T16:31:39;17.00;99.90
16728;DHT22;8482;54.396;18.590;2022-10-16T16:34:06;17.00;99.90
16728;DHT22;8482;54.396;18.590;2022-10-16T16:36:33;17.00;99.90
16728;DHT22;8482;54.396;18.590;2022-10-16T16:38:59;16.90;99.90
16728;DHT22;8482;54.396;18.590;2022-10-16T16:41:28;16.90;99.90
16728;DHT22;8482;54.396;18.590;2022-10-16T16:43:55;16.90;99.90
16728;DHT22;8482;54.396;18.590;2022-10-16T16:46:27;16.80;99.90
16728;DHT22;8482;54.396;18.590;2022-10-16T16:48:53;16.80;99.90
16728;DHT22;8482;54.396;18.590;2022-10-16T16:51:21;16.70;99.90
16728;DHT22;8482;54.396;18.590;2022-10-16T16:53:49;16.70;99.90
16728;DHT22;8482;54.396;18.590;2022-10-16T16:56:17;16.70;99.90
16728;DHT22;8482;54.396;18.590;2022-10-16T16:58:48;16.70;99.90
16728;DHT22;8482;54.396;18.590;2022-10-16T17:01:15;16.70;99.90
16728;DHT22;8482;54.396;18.590;2022-10-16T17:03:43;16.60;99.90
16728;DHT22;8482;54.396;18.590;2022-10-16T17:06:11;16.60;99.90
16728;DHT22;8482;54.396;18.590;2022-10-16T17:08:39;16.60;99.90
16728;DHT22;8482;54.396;18.590;2022-10-16T17:11:05;16.50;99.90
16728;DHT22;8482;54.396;18.590;2022-10-16T17:13:37;16.50;99.90
16728;DHT22;8482;54.396;18.590;2022-10-16T17:16:04;16.50;99.90
16728;DHT22;8482;54.396;18.590;2022-10-16T17:18:32;16.50;99.90
16728;DHT22;8482;54.396;18.590;2022-10-16T17:20:59;16.50;99.90
16728;DHT22;8482;54.396;18.590;2022-10-16T17:23:26;16.50;99.90
16728;DHT22;8482;54.396;18.590;2022-10-16T17:25:53;16.40;99.90
16728;DHT22;8482;54.396;18.590;2022-10-16T17:28:19;16.40;99.90
16728;DHT22;8482;54.396;18.590;2022-10-16T17:30:45;16.30;99.90
16728;DHT22;8482;54.396;18.590;2022-10-16T17:33:12;16.30;99.90
16728;DHT22;8482;54.396;18.590;2022-10-16T17:35:46;16.30;99.90
16728;DHT22;8482;54.396;18.590;2022-10-16T17:38:14;16.20;99.90
16728;DHT22;8482;54.396;18.590;2022-10-16T17:40:41;16.20;99.90
16728;DHT22;8482;54.396;18.590;2022-10-16T17:43:08;16.10;99.90
16728;DHT22;8482;54.396;18.590;2022-10-16T17:45:37;16.10;99.90
16728;DHT22;8482;54.396;18.590;2022-10-16T17:48:04;16.10;99.90
16728;DHT22;8482;54.396;18.590;2022-10-16T17:50:30;16.10;99.90
16728;DHT22;8482;54.396;18.590;2022-10-16T17:52:56;16.10;99.90
16728;DHT22;8482;54.396;18.590;2022-10-16T17:55:21;16.10;99.90
16728;DHT22;8482;54.396;18.590;2022-10-16T17:57:47;16.10;99.90
16728;DHT22;8482;54.396;18.590;2022-10-16T18:00:13;16.10;99.90
16728;DHT22;8482;54.396;18.590;2022-10-16T18:02:39;16.10;99.90
16728;DHT22;8482;54.396;18.590;2022-10-16T18:05:08;16.10;99.90
16728;DHT22;8482;54.396;18.590;2022-10-16T18:07:34;16.10;99.90
16728;DHT22;8482;54.396;18.590;2022-10-16T18:10:00;16.10;99.90
16728;DHT22;8482;54.396;18.590;2022-10-16T18:12:28;16.10;99.90
16728;DHT22;8482;54.396;18.590;2022-10-16T18:14:54;16.10;99.90
16728;DHT22;8482;54.396;18.590;2022-10-16T18:17:23;16.00;99.90
16728;DHT22;8482;54.396;18.590;2022-10-16T18:19:49;16.00;99.90
16728;DHT22;8482;54.396;18.590;2022-10-16T18:22:15;16.00;99.90
16728;DHT22;8482;54.396;18.590;2022-10-16T18:24:41;16.00;99.90
16728;DHT22;8482;54.396;18.590;2022-10-16T18:27:07;15.90;99.90
16728;DHT22;8482;54.396;18.590;2022-10-16T18:29:33;15.90;99.90
16728;DHT22;8482;54.396;18.590;2022-10-16T18:31:59;15.90;99.90
16728;DHT22;8482;54.396;18.590;2022-10-16T18:34:25;15.90;99.90
16728;DHT22;8482;54.396;18.590;2022-10-16T18:36:52;15.90;99.90
16728;DHT22;8482;54.396;18.590;2022-10-16T18:39:19;15.90;99.90
16728;DHT22;8482;54.396;18.590;2022-10-16T18:41:48;15.90;99.90
16728;DHT22;8482;54.396;18.590;2022-10-16T18:44:16;15.90;99.90
16728;DHT22;8482;54.396;18.590;2022-10-16T18:46:42;15.90;99.90
16728;DHT22;8482;54.396;18.590;2022-10-16T18:49:08;15.90;99.90
16728;DHT22;8482;54.396;18.590;2022-10-16T18:51:39;15.90;99.90
16728;DHT22;8482;54.396;18.590;2022-10-16T18:54:08;15.90;99.90
16728;DHT22;8482;54.396;18.590;2022-10-16T18:56:36;15.90;99.90
16728;DHT22;8482;54.396;18.590;2022-10-16T18:59:04;15.90;99.90
16728;DHT22;8482;54.396;18.590;2022-10-16T19:01:33;15.90;99.90
16728;DHT22;8482;54.396;18.590;2022-10-16T19:04:05;15.90;99.90
16728;DHT22;8482;54.396;18.590;2022-10-16T19:06:39;15.90;99.90
16728;DHT22;8482;54.396;18.590;2022-10-16T19:09:09;15.90;99.90
16728;DHT22;8482;54.396;18.590;2022-10-16T19:11:36;15.90;99.90
16728;DHT22;8482;54.396;18.590;2022-10-16T19:14:02;15.90;99.90
16728;DHT22;8482;54.396;18.590;2022-10-16T19:16:33;15.90;99.90
16728;DHT22;8482;54.396;18.590;2022-10-16T19:19:03;15.90;99.90
16728;DHT22;8482;54.396;18.590;2022-10-16T19:21:30;15.90;99.90
16728;DHT22;8482;54.396;18.590;2022-10-16T19:24:02;16.00;99.90
16728;DHT22;8482;54.396;18.590;2022-10-16T19:26:30;16.00;99.90
16728;DHT22;8482;54.396;18.590;2022-10-16T19:29:00;16.00;99.90
16728;DHT22;8482;54.396;18.590;2022-10-16T19:31:29;16.00;99.90
16728;DHT22;8482;54.396;18.590;2022-10-16T19:33:57;16.00;99.90
16728;DHT22;8482;54.396;18.590;2022-10-16T19:36:32;16.00;99.90
16728;DHT22;8482;54.396;18.590;2022-10-16T19:39:02;15.90;99.90
16728;DHT22;8482;54.396;18.590;2022-10-16T19:41:31;15.90;99.90
16728;DHT22;8482;54.396;18.590;2022-10-16T19:44:02;15.90;99.90
16728;DHT22;8482;54.396;18.590;2022-10-16T19:46:30;15.90;99.90
16728;DHT22;8482;54.396;18.590;2022-10-16T19:48:58;15.90;99.90
16728;DHT22;8482;54.396;18.590;2022-10-16T19:51:27;15.90;99.90
16728;DHT22;8482;54.396;18.590;2022-10-16T19:54:03;15.90;99.90
16728;DHT22;8482;54.396;18.590;2022-10-16T19:56:32;15.90;99.90
16728;DHT22;8482;54.396;18.590;2022-10-16T19:59:00;15.90;99.90
16728;DHT22;8482;54.396;18.590;2022-10-16T20:01:27;15.90;99.90
16728;DHT22;8482;54.396;18.590;2022-10-16T20:03:55;15.80;99.90
16728;DHT22;8482;54.396;18.590;2022-10-16T20:06:21;15.80;99.90
16728;DHT22;8482;54.396;18.590;2022-10-16T20:08:49;15.80;99.90
16728;DHT22;8482;54.396;18.590;2022-10-16T20:11:19;15.80;99.90
16728;DHT22;8482;54.396;18.590;2022-10-16T20:13:46;15.80;99.90
16728;DHT22;8482;54.396;18.590;2022-10-16T20:16:13;15.80;99.90
16728;DHT22;8482;54.396;18.590;2022-10-16T20:18:42;15.80;99.90
16728;DHT22;8482;54.396;18.590;2022-10-16T20:21:13;15.70;99.90
16728;DHT22;8482;54.396;18.590;2022-10-16T20:23:42;15.70;99.90
16728;DHT22;8482;54.396;18.590;2022-10-16T20:26:09;15.70;99.90
16728;DHT22;8482;54.396;18.590;2022-10-16T20:28:42;15.70;99.90
16728;DHT22;8482;54.396;18.590;2022-10-16T20:31:12;15.70;99.90
16728;DHT22;8482;54.396;18.590;2022-10-16T20:33:41;15.70;99.90
16728;DHT22;8482;54.396;18.590;2022-10-16T20:36:12;15.70;99.90
16728;DHT22;8482;54.396;18.590;2022-10-16T20:38:39;15.70;99.90
16728;DHT22;8482;54.396;18.590;2022-10-16T20:41:06;15.70;99.90
16728;DHT22;8482;54.396;18.590;2022-10-16T20:43:34;15.70;99.90
16728;DHT22;8482;54.396;18.590;2022-10-16T20:46:06;15.70;99.90
16728;DHT22;8482;54.396;18.590;2022-10-16T20:48:35;15.70;99.90
16728;DHT22;8482;54.396;18.590;2022-10-16T20:51:22;15.70;99.90
16728;DHT22;8482;54.396;18.590;2022-10-16T20:53:58;15.70;99.90
16728;DHT22;8482;54.396;18.590;2022-10-16T20:56:27;15.60;99.90
16728;DHT22;8482;54.396;18.590;2022-10-16T20:58:55;15.70;99.90
16728;DHT22;8482;54.396;18.590;2022-10-16T21:01:23;15.60;99.90
16728;DHT22;8482;54.396;18.590;2022-10-16T21:03:55;15.70;99.90
16728;DHT22;8482;54.396;18.590;2022-10-16T21:06:23;15.70;99.90
16728;DHT22;8482;54.396;18.590;2022-10-16T21:08:50;15.60;99.90
16728;DHT22;8482;54.396;18.590;2022-10-16T21:11:30;15.60;99.90
16728;DHT22;8482;54.396;18.590;2022-10-16T21:14:00;15.60;99.90
16728;DHT22;8482;54.396;18.590;2022-10-16T21:16:27;15.60;99.90
16728;DHT22;8482;54.396;18.590;2022-10-16T21:18:54;15.60;99.90
16728;DHT22;8482;54.396;18.590;2022-10-16T21:21:25;15.60;99.90
16728;DHT22;8482;54.396;18.590;2022-10-16T21:23:55;15.60;99.90
16728;DHT22;8482;54.396;18.590;2022-10-16T21:26:23;15.60;99.90
16728;DHT22;8482;54.396;18.590;2022-10-16T21:29:01;15.60;99.90
16728;DHT22;8482;54.396;18.590;2022-10-16T21:31:29;15.60;99.90
16728;DHT22;8482;54.396;18.590;2022-10-16T21:33:55;15.60;99.90
16728;DHT22;8482;54.396;18.590;2022-10-16T21:36:27;15.60;99.90
16728;DHT22;8482;54.396;18.590;2022-10-16T21:38:55;15.60;99.90
16728;DHT22;8482;54.396;18.590;2022-10-16T21:41:26;15.60;99.90
16728;DHT22;8482;54.396;18.590;2022-10-16T21:43:55;15.60;99.90
16728;DHT22;8482;54.396;18.590;2022-10-16T21:46:23;15.70;99.90
16728;DHT22;8482;54.396;18.590;2022-10-16T21:48:52;15.70;99.90
16728;DHT22;8482;54.396;18.590;2022-10-16T21:51:19;15.70;99.90
16728;DHT22;8482;54.396;18.590;2022-10-16T21:53:45;15.70;99.90
16728;DHT22;8482;54.396;18.590;2022-10-16T21:56:15;15.70;99.90
16728;DHT22;8482;54.396;18.590;2022-10-16T21:58:43;15.70;99.90
16728;DHT22;8482;54.396;18.590;2022-10-16T22:01:12;15.70;99.90
16728;DHT22;8482;54.396;18.590;2022-10-16T22:03:39;15.70;99.90
16728;DHT22;8482;54.396;18.590;2022-10-16T22:06:07;15.70;99.90
16728;DHT22;8482;54.396;18.590;2022-10-16T22:08:34;15.70;99.90
16728;DHT22;8482;54.396;18.590;2022-10-16T22:11:10;15.70;99.90
16728;DHT22;8482;54.396;18.590;2022-10-16T22:13:42;15.70;99.90
16728;DHT22;8482;54.396;18.590;2022-10-16T22:16:09;15.70;99.90
16728;DHT22;8482;54.396;18.590;2022-10-16T22:18:36;15.70;99.90
16728;DHT22;8482;54.396;18.590;2022-10-16T22:21:08;15.70;99.90
16728;DHT22;8482;54.396;18.590;2022-10-16T22:23:34;15.70;99.90
16728;DHT22;8482;54.396;18.590;2022-10-16T22:26:11;15.70;99.90
16728;DHT22;8482;54.396;18.590;2022-10-16T22:28:38;15.70;99.90
16728;DHT22;8482;54.396;18.590;2022-10-16T22:31:07;15.70;99.90
16728;DHT22;8482;54.396;18.590;2022-10-16T22:33:36;15.60;99.90
16728;DHT22;8482;54.396;18.590;2022-10-16T22:36:04;15.60;99.90
16728;DHT22;8482;54.396;18.590;2022-10-16T22:38:33;15.60;99.90
16728;DHT22;8482;54.396;18.590;2022-10-16T22:41:10;15.50;99.90
16728;DHT22;8482;54.396;18.590;2022-10-16T22:43:39;15.50;99.90
16728;DHT22;8482;54.396;18.590;2022-10-16T22:46:21;15.50;99.90
16728;DHT22;8482;54.396;18.590;2022-10-16T22:48:48;15.50;99.90
16728;DHT22;8482;54.396;18.590;2022-10-16T22:51:15;15.50;99.90
16728;DHT22;8482;54.396;18.590;2022-10-16T22:53:41;15.50;99.90
16728;DHT22;8482;54.396;18.590;2022-10-16T22:56:08;15.40;99.90
16728;DHT22;8482;54.396;18.590;2022-10-16T22:58:35;15.40;99.90
16728;DHT22;8482;54.396;18.590;2022-10-16T23:01:01;15.40;99.90
16728;DHT22;8482;54.396;18.590;2022-10-16T23:03:33;15.30;99.90
16728;DHT22;8482;54.396;18.590;2022-10-16T23:06:02;15.30;99.90
16728;DHT22;8482;54.396;18.590;2022-10-16T23:08:28;15.20;99.90
16728;DHT22;8482;54.396;18.590;2022-10-16T23:10:54;15.10;99.90
16728;DHT22;8482;54.396;18.590;2022-10-16T23:13:25;15.10;99.90
16728;DHT22;8482;54.396;18.590;2022-10-16T23:15:51;15.00;99.90
16728;DHT22;8482;54.396;18.590;2022-10-16T23:18:17;15.00;99.90
16728;DHT22;8482;54.396;18.590;2022-10-16T23:20:43;14.80;99.90
16728;DHT22;8482;54.396;18.590;2022-10-16T23:23:09;14.80;99.90
16728;DHT22;8482;54.396;18.590;2022-10-16T23:25:35;14.70;99.90
16728;DHT22;8482;54.396;18.590;2022-10-16T23:28:02;14.70;99.90
16728;DHT22;8482;54.396;18.590;2022-10-16T23:30:28;14.60;99.90
16728;DHT22;8482;54.396;18.590;2022-10-16T23:32:54;14.60;99.90
16728;DHT22;8482;54.396;18.590;2022-10-16T23:35:20;14.50;99.90
16728;DHT22;8482;54.396;18.590;2022-10-16T23:37:46;14.40;99.90
16728;DHT22;8482;54.396;18.590;2022-10-16T23:40:12;14.30;99.90
16728;DHT22;8482;54.396;18.590;2022-10-16T23:42:37;14.30;99.90
16728;DHT22;8482;54.396;18.590;2022-10-16T23:45:04;14.30;99.90
16728;DHT22;8482;54.396;18.590;2022-10-16T23:47:30;14.20;99.90
16728;DHT22;8482;54.396;18.590;2022-10-16T23:49:56;14.20;99.90
16728;DHT22;8482;54.396;18.590;2022-10-16T23:52:22;14.10;99.90
16728;DHT22;8482;54.396;18.590;2022-10-16T23:54:47;14.00;99.90
16728;DHT22;8482;54.396;18.590;2022-10-16T23:57:13;14.00;99.90
16728;DHT22;8482;54.396;18.590;2022-10-16T23:59:39;14.00;99.90
